Time;durP1;ratioP1;P1;durP2;ratioP2;P2;SDS_P1;SDS_P2;PMS_P1;PMS_P2;Temp;Humidity;BMP_temperature;BMP_pressure;BME280_temperature;BME280_humidity;BME280_pressure;Samples;Min_cycle;Max_cycle;Signal;HPM_P1;HPM_P2
2022/01/15 00:00:35;;;;;;;;;;;;;;;;;;6216324;23;19946;-75
2022/01/15 00:03:01;;;;;;;;;;;;;;;;;;6216450;23;19911;-75
2022/01/15 00:05:27;;;;;;;;;;;;;;;;;;6216138;23;19904;-75
2022/01/15 00:07:53;;;;;;;;;;;;;;;;;;6215351;23;20229;-75
2022/01/15 00:10:20;;;;;;;;;;;;;;;;;;6216150;23;19928;-75
2022/01/15 00:12:46;;;;;;;;;;;;;;;;;;6215913;23;19904;-75
2022/01/15 00:15:16;;;;;;;;;;;;;;;;;;6216354;23;19950;-75
2022/01/15 00:20:11;;;;;;;;;;;;;;;;;;6215506;23;19907;-75
2022/01/15 00:22:37;;;;;;;;;;;;;;;;;;6215418;23;20227;-75
2022/01/15 00:25:03;;;;;;;;;;;;;;;;;;6215594;23;19904;-75
2022/01/15 00:27:28;;;;;;;;;;;;;;;;;;6216377;23;19904;-75
2022/01/15 00:29:54;;;;;;;;;;;;;;;;;;6215570;23;20337;-75
2022/01/15 00:32:20;;;;;;;;;;;;;;;;;;6215434;23;19904;-75
2022/01/15 00:34:46;;;;;;;;;;;;;;;;;;6215928;23;19904;-75
2022/01/15 00:37:12;;;;;;;;;;;;;;;;;;6215889;23;19908;-75
2022/01/15 00:39:38;;;;;;;;;;;;;;;;;;6215057;23;19904;-75
2022/01/15 00:42:05;;;;;;;;;;;;;;;;;;6215638;23;19974;-75
2022/01/15 00:44:31;;;;;;;;;;;;;;;;;;6215746;23;19914;-75
2022/01/15 00:46:57;;;;;;;;;;;;;;;;;;6215838;23;19982;-75
2022/01/15 00:49:23;;;;;;;;;;;;;;;;;;6215806;23;19915;-75
2022/01/15 00:51:49;;;;;;;;;;;;;;;;;;6215465;23;19932;-75
2022/01/15 00:54:15;;;;;;;;;;;;;;;;;;6215199;23;19904;-75
2022/01/15 00:56:41;;;;;;;;;;;;;;;;;;6215676;23;19912;-75
2022/01/15 00:59:07;;;;;;;;;;;;;;;;;;6215877;23;20238;-75
2022/01/15 01:01:34;;;;;;;;;;;;;;;;;;6216043;23;20005;-75
2022/01/15 01:04:00;;;;;;;;;;;;;;;;;;6188646;23;19926;-75
2022/01/15 01:06:26;;;;;;;;;;;;;;;;;;6188829;23;19915;-75
2022/01/15 01:08:52;;;;;;;;;;;;;;;;;;6215107;23;20247;-75
2022/01/15 01:11:28;;;;;;;;;;;;;;;;;;6215567;23;19940;-75
2022/01/15 01:24:36;;;;;;;;;;;;;;;;;;6215420;23;19903;-75
2022/01/15 01:27:08;;;;;;;;;;;;;;;;;;6214289;23;19904;-75
2022/01/15 01:32:09;;;;;;;;;;;;;;;;;;6215074;23;19970;-75
2022/01/15 01:34:38;;;;;;;;;;;;;;;;;;6215391;23;20352;-75
2022/01/15 01:37:34;;;;;;;;;;;;;;;;;;6188396;23;19908;-75
2022/01/15 01:39:56;;;;;;;;;;;;;;;;;;6214221;23;19904;-75
2022/01/15 01:44:47;;;;;;;;;;;;;;;;;;6214884;23;19962;-75
2022/01/15 01:47:26;;;;;;;;;;;;;;;;;;6188235;23;19979;-75
2022/01/15 01:49:52;;;;;;;;;;;;;;;;;;6214908;23;19978;-75
2022/01/15 01:52:18;;;;;;;;;;;;;;;;;;6214805;23;19908;-75
2022/01/15 01:54:44;;;;;;;;;;;;;;;;;;6215129;23;19912;-75
2022/01/15 01:57:10;;;;;;;;;;;;;;;;;;6215088;23;19915;-75
2022/01/15 01:59:35;;;;;;;;;;;;;;;;;;6215006;23;20318;-75
2022/01/15 02:02:03;;;;;;;;;;;;;;;;;;6214961;23;19908;-75
2022/01/15 02:04:29;;;;;;;;;;;;;;;;;;6215052;23;19908;-75
2022/01/15 02:06:55;;;;;;;;;;;;;;;;;;6214689;23;19904;-75
2022/01/15 02:09:23;;;;;;;;;;;;;;;;;;6215428;23;19914;-75
2022/01/15 02:11:49;;;;;;;;;;;;;;;;;;6215069;23;19904;-75
2022/01/15 02:14:15;;;;;;;;;;;;;;;;;;6214893;23;20242;-75
2022/01/15 02:16:40;;;;;;;;;;;;;;;;;;6214770;23;19912;-75
2022/01/15 02:19:06;;;;;;;;;;;;;;;;;;6215195;23;19904;-75
2022/01/15 02:24:19;;;;;;;;;;;;;;;;;;6122555;23;19905;-75
2022/01/15 02:26:45;;;;;;;;;;;;;;;;;;6122481;23;20406;-75
2022/01/15 02:29:12;;;;;;;;;;;;;;;;;;6122753;23;19916;-75
2022/01/15 02:31:38;;;;;;;;;;;;;;;;;;6123340;23;19905;-75
2022/01/15 02:34:04;;;;;;;;;;;;;;;;;;6122544;23;19912;-75
2022/01/15 02:36:30;;;;;;;;;;;;;;;;;;6122486;23;20363;-75
2022/01/15 02:38:56;;;;;;;;;;;;;;;;;;6122793;23;19905;-75
2022/01/15 02:41:21;;;;;;;;;;;;;;;;;;6122678;23;19951;-75
2022/01/15 02:43:47;;;;;;;;;;;;;;;;;;6124016;23;19911;-75
2022/01/15 02:46:23;;;;;;;;;;;;;;;;;;6125490;23;19908;-75
2022/01/15 02:48:50;;;;;;;;;;;;;;;;;;6123418;23;19905;-75
2022/01/15 02:51:17;;;;;;;;;;;;;;;;;;6123758;23;20032;-75
2022/01/15 02:53:43;;;;;;;;;;;;;;;;;;6125324;23;20378;-75
2022/01/15 02:56:09;;;;;;;;;;;;;;;;;;6124512;23;19909;-75
2022/01/15 02:58:35;;;;;;;;;;;;;;;;;;6125075;23;19905;-75
2022/01/15 03:01:01;;;;;;;;;;;;;;;;;;6156914;23;20261;-75
2022/01/15 03:03:27;;;;;;;;;;;;;;;;;;6216786;23;19955;-75
2022/01/15 03:05:53;;;;;;;;;;;;;;;;;;6215950;23;19904;-75
2022/01/15 03:08:19;;;;;;;;;;;;;;;;;;6216592;23;19904;-75
2022/01/15 03:10:46;;;;;;;;;;;;;;;;;;6216654;23;19904;-75
2022/01/15 03:13:13;;;;;;;;;;;;;;;;;;6216937;23;19915;-75
2022/01/15 03:15:39;;;;;;;;;;;;;;;;;;6216430;23;20266;-75
2022/01/15 03:18:05;;;;;;;;;;;;;;;;;;6216265;23;19904;-75
2022/01/15 03:20:31;;;;;;;;;;;;;;;;;;6216077;23;19904;-75
2022/01/15 03:22:57;;;;;;;;;;;;;;;;;;6216913;23;19930;-75
2022/01/15 03:25:23;;;;;;;;;;;;;;;;;;6216098;23;19987;-75
2022/01/15 03:27:49;;;;;;;;;;;;;;;;;;6216544;23;19904;-75
2022/01/15 03:30:15;;;;;;;;;;;;;;;;;;6216470;23;19908;-75
2022/01/15 03:32:43;;;;;;;;;;;;;;;;;;6215877;23;19915;-75
2022/01/15 03:35:09;;;;;;;;;;;;;;;;;;6215710;23;20252;-75
2022/01/15 03:37:34;;;;;;;;;;;;;;;;;;6216327;23;19946;-75
2022/01/15 03:40:00;;;;;;;;;;;;;;;;;;6189706;23;19939;-75
2022/01/15 03:42:26;;;;;;;;;;;;;;;;;;6215950;23;19982;-75
2022/01/15 03:44:52;;;;;;;;;;;;;;;;;;6216226;23;19910;-75
2022/01/15 03:47:18;;;;;;;;;;;;;;;;;;6216199;23;19911;-75
2022/01/15 03:49:44;;;;;;;;;;;;;;;;;;6215882;23;20307;-75
2022/01/15 03:52:10;;;;;;;;;;;;;;;;;;6216536;23;19908;-75
2022/01/15 03:54:36;;;;;;;;;;;;;;;;;;6215855;23;19903;-75
2022/01/15 03:57:02;;;;;;;;;;;;;;;;;;6188933;23;19915;-75
2022/01/15 03:59:28;;;;;;;;;;;;;;;;;;6216115;23;19911;-75
2022/01/15 04:01:53;;;;;;;;;;;;;;;;;;6216031;23;19904;-75
2022/01/15 04:04:19;;;;;;;;;;;;;;;;;;6215691;23;20436;-75
2022/01/15 04:06:45;;;;;;;;;;;;;;;;;;6216277;23;19911;-75
2022/01/15 04:09:11;;;;;;;;;;;;;;;;;;6215647;23;19995;-75
2022/01/15 04:11:37;;;;;;;;;;;;;;;;;;6215231;23;20322;-75
2022/01/15 04:14:03;;;;;;;;;;;;;;;;;;6215255;23;19915;-75
2022/01/15 04:16:29;;;;;;;;;;;;;;;;;;6189309;23;19908;-75
2022/01/15 04:18:55;;;;;;;;;;;;;;;;;;6215519;23;19959;-75
2022/01/15 04:21:21;;;;;;;;;;;;;;;;;;6215594;23;19923;-75
2022/01/15 04:23:47;;;;;;;;;;;;;;;;;;6215894;23;19904;-75
2022/01/15 04:26:13;;;;;;;;;;;;;;;;;;6215804;23;19904;-75
2022/01/15 04:28:39;;;;;;;;;;;;;;;;;;6215564;23;19914;-75
2022/01/15 04:31:06;;;;;;;;;;;;;;;;;;6215797;23;19904;-75
2022/01/15 04:33:32;;;;;;;;;;;;;;;;;;6215827;23;19903;-75
2022/01/15 04:35:58;;;;;;;;;;;;;;;;;;6215671;23;19930;-75
2022/01/15 04:38:24;;;;;;;;;;;;;;;;;;6215707;23;20386;-75
2022/01/15 04:40:50;;;;;;;;;;;;;;;;;;6215117;23;19963;-75
2022/01/15 04:43:16;;;;;;;;;;;;;;;;;;6215644;23;20314;-75
2022/01/15 04:45:42;;;;;;;;;;;;;;;;;;6215711;23;19914;-75
2022/01/15 04:48:08;;;;;;;;;;;;;;;;;;6216015;23;19903;-75
2022/01/15 04:50:34;;;;;;;;;;;;;;;;;;6215454;23;19903;-75
2022/01/15 04:53:00;;;;;;;;;;;;;;;;;;6215528;23;19966;-75
2022/01/15 04:55:26;;;;;;;;;;;;;;;;;;6215440;23;19908;-75
2022/01/15 04:57:51;;;;;;;;;;;;;;;;;;6216051;23;19954;-75
2022/01/15 05:00:17;;;;;;;;;;;;;;;;;;6215697;23;19935;-75
2022/01/15 05:02:43;;;;;;;;;;;;;;;;;;6215079;23;19936;-75
2022/01/15 05:05:09;;;;;;;;;;;;;;;;;;6189021;23;19907;-75
2022/01/15 05:07:35;;;;;;;;;;;;;;;;;;6215269;23;19904;-75
2022/01/15 05:10:01;;;;;;;;;;;;;;;;;;6214885;23;19908;-75
2022/01/15 05:12:42;;;;;;;;;;;;;;;;;;6214832;23;19908;-75
2022/01/15 05:15:08;;;;;;;;;;;;;;;;;;6215567;23;20349;-75
2022/01/15 05:17:33;;;;;;;;;;;;;;;;;;6215458;23;19942;-75
2022/01/15 05:19:59;;;;;;;;;;;;;;;;;;6215651;23;19983;-75
2022/01/15 05:22:25;;;;;;;;;;;;;;;;;;6215315;23;19922;-75
2022/01/15 05:24:51;;;;;;;;;;;;;;;;;;6214977;23;19982;-75
2022/01/15 05:27:17;;;;;;;;;;;;;;;;;;6215586;23;19958;-75
2022/01/15 05:29:44;;;;;;;;;;;;;;;;;;6214756;23;19910;-75
2022/01/15 05:32:10;;;;;;;;;;;;;;;;;;6215522;23;19903;-75
2022/01/15 05:34:35;;;;;;;;;;;;;;;;;;6215211;23;20286;-75
2022/01/15 05:37:01;;;;;;;;;;;;;;;;;;6214794;23;19912;-75
2022/01/15 05:39:27;;;;;;;;;;;;;;;;;;6188713;23;19953;-75
2022/01/15 05:41:53;;;;;;;;;;;;;;;;;;6215219;23;20301;-75
2022/01/15 05:44:19;;;;;;;;;;;;;;;;;;6214956;23;19968;-75
2022/01/15 05:46:46;;;;;;;;;;;;;;;;;;6214990;23;19930;-75
2022/01/15 05:49:13;;;;;;;;;;;;;;;;;;6215711;23;19918;-75
2022/01/15 05:51:39;;;;;;;;;;;;;;;;;;6215174;23;19904;-75
2022/01/15 05:54:10;;;;;;;;;;;;;;;;;;6215482;23;19931;-75
2022/01/15 05:56:36;;;;;;;;;;;;;;;;;;6214508;23;20050;-75
2022/01/15 05:59:01;;;;;;;;;;;;;;;;;;6214702;23;20326;-75
2022/01/15 06:01:27;;;;;;;;;;;;;;;;;;6215440;23;19947;-75
2022/01/15 06:03:53;;;;;;;;;;;;;;;;;;6214846;23;19904;-75
2022/01/15 06:06:19;;;;;;;;;;;;;;;;;;6215261;23;19908;-75
2022/01/15 06:08:46;;;;;;;;;;;;;;;;;;6215104;23;20289;-75
2022/01/15 06:11:17;;;;;;;;;;;;;;;;;;6215060;23;19908;-75
2022/01/15 06:13:43;;;;;;;;;;;;;;;;;;6214498;23;19908;-75
2022/01/15 06:16:09;;;;;;;;;;;;;;;;;;6214840;23;20375;-75
2022/01/15 06:18:35;;;;;;;;;;;;;;;;;;6217115;23;19904;-75
2022/01/15 06:21:01;;;;;;;;;;;;;;;;;;6216410;23;19984;-75
2022/01/15 06:23:27;;;;;;;;;;;;;;;;;;6217680;23;19907;-75
2022/01/15 06:25:53;;;;;;;;;;;;;;;;;;6216829;23;19938;-75
2022/01/15 06:28:18;;;;;;;;;;;;;;;;;;6189752;23;19904;-75
2022/01/15 06:30:44;;;;;;;;;;;;;;;;;;6216890;23;19904;-75
2022/01/15 06:33:10;;;;;;;;;;;;;;;;;;6216698;23;19946;-75
2022/01/15 06:35:36;;;;;;;;;;;;;;;;;;6216738;23;20054;-75
2022/01/15 06:38:02;;;;;;;;;;;;;;;;;;6217021;23;20000;-75
2022/01/15 06:40:28;;;;;;;;;;;;;;;;;;6217016;23;19932;-75
2022/01/15 06:42:54;;;;;;;;;;;;;;;;;;6216154;23;19904;-75
2022/01/15 06:45:20;;;;;;;;;;;;;;;;;;6216836;23;19974;-75
2022/01/15 06:47:46;;;;;;;;;;;;;;;;;;6216274;23;20311;-75
2022/01/15 06:50:12;;;;;;;;;;;;;;;;;;6216952;23;19904;-75
2022/01/15 06:52:37;;;;;;;;;;;;;;;;;;6216938;23;19912;-75
2022/01/15 06:55:03;;;;;;;;;;;;;;;;;;6216049;23;19966;-75
2022/01/15 06:57:29;;;;;;;;;;;;;;;;;;6216386;23;19912;-75
2022/01/15 06:59:55;;;;;;;;;;;;;;;;;;6216744;23;20384;-75
2022/01/15 07:02:21;;;;;;;;;;;;;;;;;;6216803;23;19912;-75
2022/01/15 07:04:47;;;;;;;;;;;;;;;;;;6216863;23;19926;-75
2022/01/15 07:07:13;;;;;;;;;;;;;;;;;;6216524;23;19971;-75
2022/01/15 07:09:39;;;;;;;;;;;;;;;;;;6217202;23;19904;-75
2022/01/15 07:12:05;;;;;;;;;;;;;;;;;;6216107;23;19910;-75
2022/01/15 07:14:31;;;;;;;;;;;;;;;;;;6216696;23;20322;-75
2022/01/15 07:16:57;;;;;;;;;;;;;;;;;;6216115;23;19990;-75
2022/01/15 07:19:23;;;;;;;;;;;;;;;;;;6189678;23;19904;-75
2022/01/15 07:21:49;;;;;;;;;;;;;;;;;;6211959;23;20393;-75
2022/01/15 07:24:16;;;;;;;;;;;;;;;;;;6188536;23;19930;-75
2022/01/15 07:26:42;;;;;;;;;;;;;;;;;;6214345;23;19915;-75
2022/01/15 07:29:14;;;;;;;;;;;;;;;;;;6214917;23;20007;-75
2022/01/15 07:31:40;;;;;;;;;;;;;;;;;;6215320;23;19910;-75
2022/01/15 07:34:06;;;;;;;;;;;;;;;;;;6215121;23;19926;-75
2022/01/15 07:36:32;;;;;;;;;;;;;;;;;;6188654;23;19912;-74
2022/01/15 07:38:58;;;;;;;;;;;;;;;;;;6215802;23;19911;-75
2022/01/15 07:41:24;;;;;;;;;;;;;;;;;;6214916;23;19904;-75
2022/01/15 07:43:50;;;;;;;;;;;;;;;;;;6188621;23;20277;-75
2022/01/15 07:46:16;;;;;;;;;;;;;;;;;;6215475;23;19958;-75
2022/01/15 07:48:41;;;;;;;;;;;;;;;;;;6215011;23;19912;-75
2022/01/15 07:51:07;;;;;;;;;;;;;;;;;;6215000;23;19930;-75
2022/01/15 07:53:33;;;;;;;;;;;;;;;;;;6215214;23;20257;-75
2022/01/15 07:55:59;;;;;;;;;;;;;;;;;;6214771;23;19968;-76
2022/01/15 07:58:25;;;;;;;;;;;;;;;;;;6215965;23;19910;-74
2022/01/15 08:00:51;;;;;;;;;;;;;;;;;;6215751;23;20467;-74
2022/01/15 08:03:17;;;;;;;;;;;;;;;;;;6215392;23;20250;-76
2022/01/15 08:05:43;;;;;;;;;;;;;;;;;;6215546;23;19904;-77
2022/01/15 08:08:09;;;;;;;;;;;;;;;;;;6215392;23;19923;-75
2022/01/15 08:10:35;;;;;;;;;;;;;;;;;;6188573;23;20314;-75
2022/01/15 08:13:01;;;;;;;;;;;;;;;;;;6215831;23;19907;-75
2022/01/15 08:15:27;;;;;;;;;;;;;;;;;;6215299;23;19912;-76
2022/01/15 08:17:53;;;;;;;;;;;;;;;;;;6215586;23;20217;-75
2022/01/15 08:20:19;;;;;;;;;;;;;;;;;;6215417;23;19923;-76
2022/01/15 08:22:45;;;;;;;;;;;;;;;;;;6215253;23;19969;-75
2022/01/15 08:25:11;;;;;;;;;;;;;;;;;;6214843;23;19919;-74
2022/01/15 08:27:37;;;;;;;;;;;;;;;;;;6214738;23;20242;-74
2022/01/15 08:30:03;;;;;;;;;;;;;;;;;;6214989;23;19934;-75
2022/01/15 08:32:29;;;;;;;;;;;;;;;;;;6215227;23;19904;-75
2022/01/15 08:34:55;;;;;;;;;;;;;;;;;;6188352;23;19904;-75
2022/01/15 08:37:21;;;;;;;;;;;;;;;;;;6215073;23;19923;-74
2022/01/15 08:39:47;;;;;;;;;;;;;;;;;;6214092;23;19927;-74
2022/01/15 08:42:13;;;;;;;;;;;;;;;;;;6211364;23;20246;-74
2022/01/15 08:44:42;;;;;;;;;;;;;;;;;;6212900;23;19904;-74
2022/01/15 08:47:08;;;;;;;;;;;;;;;;;;6213421;23;19969;-74
2022/01/15 08:49:34;;;;;;;;;;;;;;;;;;6214101;23;20334;-74
2022/01/15 08:52:00;;;;;;;;;;;;;;;;;;6213775;23;19912;-74
2022/01/15 08:54:25;;;;;;;;;;;;;;;;;;6213443;23;19954;-74
2022/01/15 08:56:51;;;;;;;;;;;;;;;;;;6214220;23;20248;-74
2022/01/15 08:59:18;;;;;;;;;;;;;;;;;;6214124;23;19904;-74
2022/01/15 09:01:44;;;;;;;;;;;;;;;;;;6213560;23;19958;-74
2022/01/15 09:04:10;;;;;;;;;;;;;;;;;;6213586;23;19907;-74
2022/01/15 09:06:39;;;;;;;;;;;;;;;;;;6213741;23;19974;-74
2022/01/15 09:09:05;;;;;;;;;;;;;;;;;;6214321;23;19904;-74
2022/01/15 09:11:31;;;;;;;;;;;;;;;;;;6214309;23;19910;-76
2022/01/15 09:13:57;;;;;;;;;;;;;;;;;;6187100;23;20285;-74
2022/01/15 09:16:23;;;;;;;;;;;;;;;;;;6214298;23;19908;-74
2022/01/15 09:18:49;;;;;;;;;;;;;;;;;;6213610;23;19907;-74
2022/01/15 09:21:15;;;;;;;;;;;;;;;;;;6213741;23;19923;-74
2022/01/15 09:23:41;;;;;;;;;;;;;;;;;;6213484;23;20465;-74
2022/01/15 09:26:18;;;;;;;;;;;;;;;;;;6214706;23;19969;-76
2022/01/15 09:31:28;;;;;;;;;;;;;;;;;;6214394;23;20023;-74
2022/01/15 09:33:54;;;;;;;;;;;;;;;;;;6214844;23;20564;-74
2022/01/15 09:36:20;;;;;;;;;;;;;;;;;;6214308;23;19955;-75
2022/01/15 09:38:46;;;;;;;;;;;;;;;;;;6214601;23;20005;-75
2022/01/15 09:41:12;;;;;;;;;;;;;;;;;;6214556;23;19908;-74
2022/01/15 09:43:38;;;;;;;;;;;;;;;;;;6214182;23;19904;-74
2022/01/15 09:46:04;;;;;;;;;;;;;;;;;;6214157;23;19908;-73
2022/01/15 09:48:30;;;;;;;;;;;;;;;;;;6214719;23;20308;-74
2022/01/15 09:50:56;;;;;;;;;;;;;;;;;;6213839;23;19911;-74
2022/01/15 09:53:22;;;;;;;;;;;;;;;;;;6214188;23;19915;-74
2022/01/15 09:55:48;;;;;;;;;;;;;;;;;;6214260;23;20656;-74
2022/01/15 09:58:14;;;;;;;;;;;;;;;;;;6214685;23;19908;-74
2022/01/15 10:00:40;;;;;;;;;;;;;;;;;;6214739;23;20339;-74
2022/01/15 10:03:06;;;;;;;;;;;;;;;;;;6187703;23;20316;-74
2022/01/15 10:05:32;;;;;;;;;;;;;;;;;;6214156;23;19904;-74
2022/01/15 10:07:58;;;;;;;;;;;;;;;;;;6187516;23;20344;-75
2022/01/15 10:10:24;;;;;;;;;;;;;;;;;;6214823;23;19903;-74
2022/01/15 10:12:50;;;;;;;;;;;;;;;;;;6214411;23;19900;-74
2022/01/15 10:15:16;;;;;;;;;;;;;;;;;;6187981;23;19904;-74
2022/01/15 10:17:43;;;;;;;;;;;;;;;;;;6213797;23;20257;-74
2022/01/15 10:20:08;;;;;;;;;;;;;;;;;;6213612;23;19908;-74
2022/01/15 10:22:34;;;;;;;;;;;;;;;;;;6214505;23;19922;-75
2022/01/15 10:25:00;;;;;;;;;;;;;;;;;;6213910;23;19911;-76
2022/01/15 10:27:26;;;;;;;;;;;;;;;;;;6214444;23;19908;-75
2022/01/15 10:29:52;;;;;;;;;;;;;;;;;;6214515;23;20322;-74
2022/01/15 10:32:18;;;;;;;;;;;;;;;;;;6213889;23;20330;-75
2022/01/15 10:34:45;;;;;;;;;;;;;;;;;;6187447;23;20289;-75
2022/01/15 10:37:14;;;;;;;;;;;;;;;;;;6213090;23;19967;-75
2022/01/15 10:39:40;;;;;;;;;;;;;;;;;;6214191;23;19967;-74
2022/01/15 10:42:06;;;;;;;;;;;;;;;;;;6213934;23;19907;-74
2022/01/15 10:44:35;;;;;;;;;;;;;;;;;;6188082;23;19908;-74
2022/01/15 10:47:01;;;;;;;;;;;;;;;;;;6187783;23;19904;-75
2022/01/15 10:49:27;;;;;;;;;;;;;;;;;;6187402;23;19912;-75
2022/01/15 10:51:53;;;;;;;;;;;;;;;;;;6214796;23;20237;-74
2022/01/15 10:54:19;;;;;;;;;;;;;;;;;;6214818;23;19904;-74
2022/01/15 10:56:45;;;;;;;;;;;;;;;;;;6215145;23;19908;-75
2022/01/15 10:59:12;;;;;;;;;;;;;;;;;;6214142;23;19911;-75
2022/01/15 11:01:38;;;;;;;;;;;;;;;;;;6214911;23;19904;-75
2022/01/15 11:04:04;;;;;;;;;;;;;;;;;;6215012;23;20306;-76
2022/01/15 11:06:30;;;;;;;;;;;;;;;;;;6216838;23;19910;-75
2022/01/15 11:08:55;;;;;;;;;;;;;;;;;;6215967;23;19946;-76
2022/01/15 11:11:23;;;;;;;;;;;;;;;;;;6188985;23;20286;-75
2022/01/15 11:13:49;;;;;;;;;;;;;;;;;;6216311;23;19904;-76
2022/01/15 11:16:15;;;;;;;;;;;;;;;;;;6188996;23;20337;-76
2022/01/15 11:18:41;;;;;;;;;;;;;;;;;;6216237;23;19939;-75
2022/01/15 11:21:07;;;;;;;;;;;;;;;;;;6216171;23;19916;-76
2022/01/15 11:23:33;;;;;;;;;;;;;;;;;;6216923;23;19911;-76
2022/01/15 11:25:59;;;;;;;;;;;;;;;;;;6216358;23;20697;-76
2022/01/15 11:28:24;;;;;;;;;;;;;;;;;;6216381;23;19911;-76
2022/01/15 11:30:51;;;;;;;;;;;;;;;;;;6216164;23;19991;-75
2022/01/15 11:33:17;;;;;;;;;;;;;;;;;;6215603;23;19907;-76
2022/01/15 11:35:45;;;;;;;;;;;;;;;;;;6216290;23;19908;-76
2022/01/15 11:38:11;;;;;;;;;;;;;;;;;;6216142;23;19983;-75
2022/01/15 11:40:37;;;;;;;;;;;;;;;;;;6216456;23;19904;-76
2022/01/15 11:43:03;;;;;;;;;;;;;;;;;;6216491;23;19904;-75
2022/01/15 11:45:29;;;;;;;;;;;;;;;;;;6189194;23;19927;-76
2022/01/15 11:47:55;;;;;;;;;;;;;;;;;;6215477;23;19908;-74
2022/01/15 11:50:26;;;;;;;;;;;;;;;;;;6216420;23;19904;-76
2022/01/15 11:52:52;;;;;;;;;;;;;;;;;;6216054;23;19904;-75
2022/01/15 11:55:18;;;;;;;;;;;;;;;;;;6188946;23;19911;-73
2022/01/15 11:57:44;;;;;;;;;;;;;;;;;;6216685;23;19930;-74
2022/01/15 12:00:10;;;;;;;;;;;;;;;;;;6189433;23;20306;-74
2022/01/15 12:02:36;;;;;;;;;;;;;;;;;;6215555;23;19908;-74
2022/01/15 12:05:02;;;;;;;;;;;;;;;;;;6188183;23;19915;-74
2022/01/15 12:07:28;;;;;;;;;;;;;;;;;;6211684;23;19930;-74
2022/01/15 12:09:54;;;;;;;;;;;;;;;;;;6213494;23;19931;-76
2022/01/15 12:14:51;;;;;;;;;;;;;;;;;;6215822;23;19943;-73
2022/01/15 12:17:17;;;;;;;;;;;;;;;;;;6213126;23;19908;-73
2022/01/15 12:19:43;;;;;;;;;;;;;;;;;;6213580;23;19904;-76
2022/01/15 12:22:09;;;;;;;;;;;;;;;;;;6214139;23;19939;-76
2022/01/15 12:24:36;;;;;;;;;;;;;;;;;;6188384;23;20312;-73
2022/01/15 12:27:02;;;;;;;;;;;;;;;;;;6213371;23;20008;-73
2022/01/15 12:29:28;;;;;;;;;;;;;;;;;;6214154;23;19936;-75
2022/01/15 12:31:53;;;;;;;;;;;;;;;;;;6214309;23;19908;-76
2022/01/15 12:34:19;;;;;;;;;;;;;;;;;;6215453;23;20392;-75
2022/01/15 12:36:45;;;;;;;;;;;;;;;;;;6214714;23;19908;-73
2022/01/15 12:39:11;;;;;;;;;;;;;;;;;;6187991;23;19931;-76
2022/01/15 12:41:37;;;;;;;;;;;;;;;;;;6214711;23;19904;-75
2022/01/15 12:44:03;;;;;;;;;;;;;;;;;;6215508;23;19908;-75
2022/01/15 12:46:29;;;;;;;;;;;;;;;;;;6187830;23;20322;-76
2022/01/15 12:48:57;;;;;;;;;;;;;;;;;;6187499;23;19907;-76
2022/01/15 12:51:24;;;;;;;;;;;;;;;;;;6188146;23;19908;-76
2022/01/15 12:53:53;;;;;;;;;;;;;;;;;;6214310;23;19904;-76
2022/01/15 12:56:19;;;;;;;;;;;;;;;;;;6214302;23;19993;-76
2022/01/15 12:58:45;;;;;;;;;;;;;;;;;;6214272;23;19904;-75
2022/01/15 13:01:11;;;;;;;;;;;;;;;;;;6187051;23;19935;-73
2022/01/15 13:03:37;;;;;;;;;;;;;;;;;;6214469;23;19936;-74
2022/01/15 13:06:03;;;;;;;;;;;;;;;;;;6214167;23;19932;-76
2022/01/15 13:08:29;;;;;;;;;;;;;;;;;;6188082;23;20238;-73
2022/01/15 13:11:02;;;;;;;;;;;;;;;;;;6214363;23;20345;-74
2022/01/15 13:13:30;;;;;;;;;;;;;;;;;;6214424;23;19907;-75
2022/01/15 13:15:56;;;;;;;;;;;;;;;;;;6214221;23;19990;-73
2022/01/15 13:18:22;;;;;;;;;;;;;;;;;;6214414;23;19994;-74
2022/01/15 13:20:48;;;;;;;;;;;;;;;;;;6214272;23;19951;-73
2022/01/15 13:23:14;;;;;;;;;;;;;;;;;;6213902;23;19986;-74
2022/01/15 13:25:40;;;;;;;;;;;;;;;;;;6214132;23;19907;-75
2022/01/15 13:28:06;;;;;;;;;;;;;;;;;;6186824;23;19932;-73
2022/01/15 13:30:31;;;;;;;;;;;;;;;;;;6213195;23;19915;-72
2022/01/15 13:32:57;;;;;;;;;;;;;;;;;;6213941;23;20342;-76
2022/01/15 13:35:24;;;;;;;;;;;;;;;;;;6213845;23;19938;-74
2022/01/15 13:37:50;;;;;;;;;;;;;;;;;;6214648;23;20382;-75
2022/01/15 13:40:16;;;;;;;;;;;;;;;;;;6213833;23;19908;-76
2022/01/15 13:42:42;;;;;;;;;;;;;;;;;;6214577;23;19942;-74
2022/01/15 13:45:08;;;;;;;;;;;;;;;;;;6214240;23;19903;-76
2022/01/15 13:47:34;;;;;;;;;;;;;;;;;;6215177;23;19904;-74
2022/01/15 13:55:29;;;;;;;;;;;;;;;;;;6215169;23;20438;-76
2022/01/15 13:57:55;;;;;;;;;;;;;;;;;;6214372;23;19936;-76
2022/01/15 14:00:22;;;;;;;;;;;;;;;;;;6214975;23;20230;-76
2022/01/15 14:02:50;;;;;;;;;;;;;;;;;;6215486;23;19910;-75
2022/01/15 14:05:16;;;;;;;;;;;;;;;;;;6214163;23;19983;-76
2022/01/15 14:07:42;;;;;;;;;;;;;;;;;;6215127;23;19942;-76
2022/01/15 14:10:08;;;;;;;;;;;;;;;;;;6215322;23;19904;-76
2022/01/15 14:12:34;;;;;;;;;;;;;;;;;;6214536;23;20298;-76
2022/01/15 14:15:03;;;;;;;;;;;;;;;;;;6215244;23;19904;-76
2022/01/15 14:17:29;;;;;;;;;;;;;;;;;;6214340;23;19908;-77
2022/01/15 14:22:24;;;;;;;;;;;;;;;;;;6215084;23;20286;-76
2022/01/15 14:24:50;;;;;;;;;;;;;;;;;;6215249;23;19904;-77
2022/01/15 14:27:16;;;;;;;;;;;;;;;;;;6214478;23;19915;-78
2022/01/15 14:29:42;;;;;;;;;;;;;;;;;;6215277;23;19979;-76
2022/01/15 14:32:08;;;;;;;;;;;;;;;;;;6214515;23;19915;-77
2022/01/15 14:34:33;;;;;;;;;;;;;;;;;;6214703;23;19904;-77
2022/01/15 14:36:59;;;;;;;;;;;;;;;;;;6214369;23;19994;-76
2022/01/15 14:39:25;;;;;;;;;;;;;;;;;;6215816;23;19939;-77
2022/01/15 14:41:51;;;;;;;;;;;;;;;;;;6216790;23;20326;-76
2022/01/15 14:44:17;;;;;;;;;;;;;;;;;;6216665;23;19936;-76
2022/01/15 14:46:43;;;;;;;;;;;;;;;;;;6216403;23;19904;-77
2022/01/15 14:49:09;;;;;;;;;;;;;;;;;;6216578;23;19904;-74
2022/01/15 14:51:35;;;;;;;;;;;;;;;;;;6217130;23;20325;-76
2022/01/15 14:54:01;;;;;;;;;;;;;;;;;;6216535;23;19904;-77
2022/01/15 14:56:27;;;;;;;;;;;;;;;;;;6216149;23;19912;-77
2022/01/15 14:58:53;;;;;;;;;;;;;;;;;;6216941;23;19904;-76
2022/01/15 15:01:19;;;;;;;;;;;;;;;;;;6216432;23;20413;-76
2022/01/15 15:03:45;;;;;;;;;;;;;;;;;;6216518;23;19911;-76
2022/01/15 15:06:11;;;;;;;;;;;;;;;;;;6216391;23;19900;-77
2022/01/15 15:08:37;;;;;;;;;;;;;;;;;;6217034;23;19982;-77
2022/01/15 15:11:03;;;;;;;;;;;;;;;;;;6216164;23;19900;-76
2022/01/15 15:13:30;;;;;;;;;;;;;;;;;;6216200;23;19978;-76
2022/01/15 15:15:56;;;;;;;;;;;;;;;;;;6216631;23;19962;-77
2022/01/15 15:18:22;;;;;;;;;;;;;;;;;;6216445;23;19912;-77
2022/01/15 15:20:51;;;;;;;;;;;;;;;;;;6216530;23;19915;-76
2022/01/15 15:23:17;;;;;;;;;;;;;;;;;;6216122;23;19904;-77
2022/01/15 15:25:43;;;;;;;;;;;;;;;;;;6215789;23;19904;-77
2022/01/15 15:28:08;;;;;;;;;;;;;;;;;;6216542;23;19939;-77
2022/01/15 15:30:34;;;;;;;;;;;;;;;;;;6216154;23;19911;-77
2022/01/15 15:33:00;;;;;;;;;;;;;;;;;;6216435;23;20238;-77
2022/01/15 15:35:27;;;;;;;;;;;;;;;;;;6216574;23;19908;-77
2022/01/15 15:37:55;;;;;;;;;;;;;;;;;;6216086;23;19982;-75
2022/01/15 15:40:21;;;;;;;;;;;;;;;;;;6215758;23;19904;-77
2022/01/15 15:42:47;;;;;;;;;;;;;;;;;;6216477;23;19904;-77
2022/01/15 15:45:13;;;;;;;;;;;;;;;;;;6215333;23;19904;-77
2022/01/15 15:47:39;;;;;;;;;;;;;;;;;;6215410;23;19904;-77
2022/01/15 15:50:05;;;;;;;;;;;;;;;;;;6215382;23;19915;-76
2022/01/15 15:52:31;;;;;;;;;;;;;;;;;;6214329;23;20421;-77
2022/01/15 15:54:57;;;;;;;;;;;;;;;;;;6214828;23;19982;-76
2022/01/15 15:57:22;;;;;;;;;;;;;;;;;;6214544;23;19907;-76
2022/01/15 15:59:51;;;;;;;;;;;;;;;;;;6215819;23;19904;-77
2022/01/15 16:02:17;;;;;;;;;;;;;;;;;;6216107;23;19911;-75
2022/01/15 16:04:43;;;;;;;;;;;;;;;;;;6215456;23;19904;-77
2022/01/15 16:07:11;;;;;;;;;;;;;;;;;;6215565;23;19982;-76
2022/01/15 16:09:36;;;;;;;;;;;;;;;;;;6215387;23;19927;-76
2022/01/15 16:12:02;;;;;;;;;;;;;;;;;;6216021;23;19908;-77
2022/01/15 16:14:31;;;;;;;;;;;;;;;;;;6215446;23;19911;-77
2022/01/15 16:16:57;;;;;;;;;;;;;;;;;;6216383;23;19914;-75
2022/01/15 16:19:23;;;;;;;;;;;;;;;;;;6189157;23;19904;-75
2022/01/15 16:21:49;;;;;;;;;;;;;;;;;;6214832;23;19919;-76
2022/01/15 16:24:15;;;;;;;;;;;;;;;;;;6216065;23;19954;-76
2022/01/15 16:26:41;;;;;;;;;;;;;;;;;;6214792;23;19975;-76
2022/01/15 16:29:07;;;;;;;;;;;;;;;;;;6215984;23;20375;-76
2022/01/15 16:31:32;;;;;;;;;;;;;;;;;;6215780;23;19904;-76
2022/01/15 16:34:00;;;;;;;;;;;;;;;;;;6215616;23;19907;-76
2022/01/15 16:36:26;;;;;;;;;;;;;;;;;;6215403;23;20385;-76
2022/01/15 16:38:52;;;;;;;;;;;;;;;;;;6216104;23;19904;-76
2022/01/15 16:41:18;;;;;;;;;;;;;;;;;;6215727;23;20306;-75
2022/01/15 16:43:44;;;;;;;;;;;;;;;;;;6188874;23;19955;-76
2022/01/15 16:46:10;;;;;;;;;;;;;;;;;;6215910;23;20285;-75
2022/01/15 16:48:36;;;;;;;;;;;;;;;;;;6189342;23;19958;-75
2022/01/15 16:51:02;;;;;;;;;;;;;;;;;;6188473;23;19908;-76
2022/01/15 16:53:28;;;;;;;;;;;;;;;;;;6215753;23;19900;-76
2022/01/15 16:55:53;;;;;;;;;;;;;;;;;;6188739;23;19915;-76
2022/01/15 16:58:19;;;;;;;;;;;;;;;;;;6216258;23;19904;-75
2022/01/15 17:00:45;;;;;;;;;;;;;;;;;;6214932;23;19904;-75
2022/01/15 17:03:11;;;;;;;;;;;;;;;;;;6215506;23;19908;-76
2022/01/15 17:05:37;;;;;;;;;;;;;;;;;;6187994;23;19908;-76
2022/01/15 17:08:03;;;;;;;;;;;;;;;;;;6215114;23;19915;-76
2022/01/15 17:10:29;;;;;;;;;;;;;;;;;;6215127;23;19979;-76
2022/01/15 17:12:57;;;;;;;;;;;;;;;;;;6215468;23;19904;-76